Time;durP1;ratioP1;P1;durP2;ratioP2;P2;SDS_P1;SDS_P2;PMS_P1;PMS_P2;Temp;Humidity;BMP_temperature;BMP_pressure;BME280_temperature;BME280_humidity;BME280_pressure;Samples;Min_cycle;Max_cycle;Signal;HPM_P1;HPM_P2
2021/04/17 00:01:38;;;;;;;;;37.50;33.25;;;;;;;;5025044;28;12400;-80
2021/04/17 00:04:06;;;;;;;;;34.00;31.00;;;;;;;;5023138;28;12416;-80
2021/04/17 00:06:33;;;;;;;;;45.00;32.50;;;;;;;;5022808;28;11601;-79
2021/04/17 00:09:01;;;;;;;;;34.25;34.25;;;;;;;;5027685;28;11694;-79
2021/04/17 00:11:30;;;;;;;;;40.25;37.75;;;;;;;;5025002;28;11757;-79
2021/04/17 00:13:57;;;;;;;;;31.75;28.75;;;;;;;;5024219;28;11724;-82
2021/04/17 00:16:24;;;;;;;;;35.25;32.00;;;;;;;;5021170;28;11626;-80
2021/04/17 00:18:50;;;;;;;;;33.00;31.50;;;;;;;;5023662;28;11615;-80
2021/04/17 00:21:18;;;;;;;;;28.00;27.75;;;;;;;;5021835;28;11596;-80
2021/04/17 00:23:45;;;;;;;;;37.50;33.00;;;;;;;;5023199;28;11626;-80
2021/04/17 00:26:12;;;;;;;;;33.75;31.00;;;;;;;;5024163;28;11591;-79
2021/04/17 00:28:41;;;;;;;;;34.25;33.25;;;;;;;;5022387;28;11621;-81
2021/04/17 00:31:07;;;;;;;;;31.00;28.25;;;;;;;;5024782;28;11577;-81
2021/04/17 00:33:34;;;;;;;;;51.25;41.00;;;;;;;;5019545;28;11623;-81
2021/04/17 00:36:01;;;;;;;;;32.00;32.00;;;;;;;;5022363;28;11647;-81
2021/04/17 00:38:29;;;;;;;;;44.00;39.25;;;;;;;;5025314;28;11601;-81
2021/04/17 00:40:56;;;;;;;;;33.50;30.25;;;;;;;;5023380;28;11702;-81
2021/04/17 00:43:23;;;;;;;;;40.50;34.50;;;;;;;;5024305;28;12490;-82
2021/04/17 00:45:51;;;;;;;;;32.00;30.25;;;;;;;;5017545;28;11726;-82
2021/04/17 00:48:18;;;;;;;;;23.25;23.00;;;;;;;;5023803;28;11705;-82
2021/04/17 00:50:46;;;;;;;;;44.25;37.00;;;;;;;;5022358;28;11599;-82
2021/04/17 00:53:13;;;;;;;;;26.25;26.25;;;;;;;;5022655;28;11616;-82
2021/04/17 00:55:41;;;;;;;;;40.25;37.25;;;;;;;;5022625;28;11722;-82
2021/04/17 00:58:08;;;;;;;;;58.33;48.67;;;;;;;;5023069;28;11655;-82
2021/04/17 01:00:36;;;;;;;;;47.67;42.33;;;;;;;;5021281;28;8816;-84
2021/04/17 01:03:13;;;;;;;;;60.00;49.00;;;;;;;;5022845;28;11610;-82
2021/04/17 01:05:41;;;;;;;;;35.50;32.75;;;;;;;;5022958;28;8875;-82
2021/04/17 01:08:19;;;;;;;;;46.67;40.00;;;;;;;;5019669;28;11630;-82
2021/04/17 01:10:52;;;;;;;;;46.67;41.67;;;;;;;;5018654;28;11691;-81
2021/04/17 01:13:19;;;;;;;;;39.67;36.67;;;;;;;;5023552;28;11633;-81
2021/04/17 01:15:46;;;;;;;;;41.33;40.00;;;;;;;;5021761;28;11635;-80
2021/04/17 01:18:15;;;;;;;;;31.67;31.67;;;;;;;;5022369;28;11641;-80
2021/04/17 01:20:46;;;;;;;;;39.00;34.00;;;;;;;;5026345;28;11630;-80
2021/04/17 01:23:24;;;;;;;;;27.75;27.00;;;;;;;;5021409;28;11621;-80
2021/04/17 01:25:56;;;;;;;;;31.67;31.67;;;;;;;;5021324;28;11661;-80
2021/04/17 01:28:24;;;;;;;;;37.00;30.00;;;;;;;;5028386;28;11607;-81
2021/04/17 01:30:53;;;;;;;;;37.33;33.00;;;;;;;;5017901;28;11639;-80
2021/04/17 01:33:22;;;;;;;;;26.50;25.25;;;;;;;;5029589;28;11590;-81
2021/04/17 01:35:50;;;;;;;;;31.33;29.33;;;;;;;;5022495;28;11581;-80
2021/04/17 01:38:23;;;;;;;;;32.33;28.00;;;;;;;;5021308;28;11597;-80
2021/04/17 01:40:56;;;;;;;;;37.67;33.00;;;;;;;;5021809;28;12512;-80
2021/04/17 01:43:24;;;;;;;;;39.33;32.33;;;;;;;;5025278;28;12332;-80
2021/04/17 01:45:52;;;;;;;;;51.00;43.67;;;;;;;;5015931;28;11741;-80
2021/04/17 01:48:20;;;;;;;;;32.67;30.33;;;;;;;;5025510;28;8852;-81
2021/04/17 01:50:47;;;;;;;;;33.00;32.67;;;;;;;;5016270;28;11739;-82
2021/04/17 01:53:18;;;;;;;;;32.33;32.33;;;;;;;;5022574;28;11606;-81
2021/04/17 01:55:47;;;;;;;;;38.33;29.67;;;;;;;;5020925;28;11581;-82
2021/04/17 01:58:18;;;;;;;;;31.00;27.33;;;;;;;;5029144;28;11610;-82
2021/04/17 02:00:45;;;;;;;;;28.75;28.00;;;;;;;;5020245;28;11586;-81
2021/04/17 02:03:12;;;;;;;;;37.00;32.00;;;;;;;;5020777;28;11603;-81
2021/04/17 02:05:39;;;;;;;;;26.33;25.33;;;;;;;;5019797;28;11763;-82
2021/04/17 02:08:06;;;;;;;;;32.33;31.33;;;;;;;;5019228;28;11614;-82
2021/04/17 02:10:33;;;;;;;;;44.00;36.33;;;;;;;;5026143;28;11627;-81
2021/04/17 02:13:00;;;;;;;;;39.67;34.67;;;;;;;;5021044;28;11601;-82
2021/04/17 02:15:30;;;;;;;;;38.67;37.00;;;;;;;;5018597;28;11646;-82
2021/04/17 02:18:01;;;;;;;;;38.67;36.33;;;;;;;;5024186;28;11626;-81
2021/04/17 02:20:33;;;;;;;;;35.00;32.67;;;;;;;;5022932;28;8887;-80
2021/04/17 02:23:00;;;;;;;;;29.33;29.00;;;;;;;;5020259;28;8868;-80
2021/04/17 02:25:28;;;;;;;;;40.33;39.67;;;;;;;;5021476;28;8899;-80
2021/04/17 02:27:55;;;;;;;;;40.33;38.33;;;;;;;;5020883;28;11615;-83
2021/04/17 02:30:23;;;;;;;;;34.67;32.00;;;;;;;;5003456;28;8941;-80
2021/04/17 02:32:51;;;;;;;;;45.00;39.00;;;;;;;;5022048;28;11633;-84
2021/04/17 02:35:18;;;;;;;;;36.67;31.67;;;;;;;;5021453;28;12363;-81
2021/04/17 02:37:45;;;;;;;;;41.33;37.00;;;;;;;;5019976;28;9606;-80
2021/04/17 02:40:13;;;;;;;;;32.67;32.67;;;;;;;;5021543;28;8986;-82
2021/04/17 02:42:40;;;;;;;;;40.00;34.00;;;;;;;;5022688;28;8992;-81
2021/04/17 02:45:08;;;;;;;;;33.33;33.33;;;;;;;;5019966;28;8856;-82
2021/04/17 02:47:35;;;;;;;;;49.33;39.33;;;;;;;;5021365;28;8893;-81
2021/04/17 02:50:03;;;;;;;;;48.67;45.00;;;;;;;;5020320;28;8852;-81
2021/04/17 02:52:30;;;;;;;;;36.33;34.00;;;;;;;;5018195;28;8880;-81
2021/04/17 02:54:57;;;;;;;;;55.33;44.67;;;;;;;;5017589;28;9693;-80
2021/04/17 02:57:24;;;;;;;;;39.33;39.33;;;;;;;;5020724;28;8888;-79
2021/04/17 02:59:51;;;;;;;;;43.00;36.00;;;;;;;;5025074;28;8910;-80
2021/04/17 03:02:19;;;;;;;;;38.67;36.00;;;;;;;;5027109;28;9090;-80
2021/04/17 03:04:46;;;;;;;;;36.00;33.00;;;;;;;;5019649;28;8970;-82
2021/04/17 03:07:14;;;;;;;;;40.67;35.33;;;;;;;;5022892;28;8856;-80
2021/04/17 03:09:41;;;;;;;;;39.00;30.00;;;;;;;;5031502;28;9715;-79
2021/04/17 03:12:09;;;;;;;;;37.00;35.00;;;;;;;;5026946;28;8872;-79
2021/04/17 03:14:37;;;;;;;;;38.67;35.67;;;;;;;;5021404;28;8876;-79
2021/04/17 03:17:05;;;;;;;;;31.00;30.67;;;;;;;;5018732;28;8973;-80
2021/04/17 03:19:31;;;;;;;;;36.00;28.33;;;;;;;;5023882;28;8872;-78
2021/04/17 03:21:58;;;;;;;;;37.33;30.00;;;;;;;;5025496;28;8918;-78
2021/04/17 03:24:27;;;;;;;;;37.00;34.67;;;;;;;;5020823;28;11726;-80
2021/04/17 03:26:54;;;;;;;;;34.00;34.00;;;;;;;;5023225;28;9650;-80
2021/04/17 03:29:21;;;;;;;;;35.33;35.33;;;;;;;;5025038;28;8860;-80
2021/04/17 03:31:48;;;;;;;;;43.00;37.00;;;;;;;;5024835;28;8832;-80
2021/04/17 03:34:15;;;;;;;;;39.33;33.33;;;;;;;;5025049;28;8884;-80
2021/04/17 03:36:42;;;;;;;;;37.00;35.00;;;;;;;;5021088;28;8860;-80
2021/04/17 03:39:09;;;;;;;;;37.00;37.00;;;;;;;;5023071;28;8887;-80
2021/04/17 03:41:37;;;;;;;;;38.00;32.33;;;;;;;;5021773;28;8868;-78
2021/04/17 03:44:05;;;;;;;;;40.00;35.33;;;;;;;;5024027;28;8864;-79
2021/04/17 03:46:32;;;;;;;;;37.00;35.33;;;;;;;;5023692;28;9708;-79
2021/04/17 03:48:59;;;;;;;;;38.00;38.00;;;;;;;;5021399;28;8945;-78
2021/04/17 03:51:26;;;;;;;;;41.00;35.33;;;;;;;;5022924;28;9660;-78
2021/04/17 03:53:53;;;;;;;;;33.67;33.67;;;;;;;;5020886;28;8871;-78
2021/04/17 03:56:20;;;;;;;;;46.33;38.67;;;;;;;;5023283;28;8871;-78
2021/04/17 03:58:48;;;;;;;;;40.00;40.00;;;;;;;;5021845;28;8880;-78
2021/04/17 04:01:15;;;;;;;;;38.00;36.00;;;;;;;;5023272;28;8866;-78
2021/04/17 04:03:45;;;;;;;;;43.33;38.33;;;;;;;;5033696;28;8856;-79
2021/04/17 04:06:12;;;;;;;;;39.00;36.33;;;;;;;;5024798;28;8913;-79
2021/04/17 04:08:39;;;;;;;;;51.33;40.33;;;;;;;;5023161;28;8860;-81
2021/04/17 04:11:06;;;;;;;;;42.67;37.00;;;;;;;;5030832;28;8888;-81
2021/04/17 04:13:32;;;;;;;;;42.00;40.33;;;;;;;;5024731;28;8999;-80
2021/04/17 04:16:00;;;;;;;;;46.00;43.67;;;;;;;;5018403;28;8863;-80
2021/04/17 04:18:27;;;;;;;;;51.00;43.33;;;;;;;;5024652;28;9034;-80
2021/04/17 04:20:54;;;;;;;;;41.33;39.67;;;;;;;;5026096;28;8892;-81
2021/04/17 04:23:21;;;;;;;;;41.67;39.67;;;;;;;;5021329;28;8876;-82
2021/04/17 04:25:48;;;;;;;;;46.33;43.33;;;;;;;;5024862;28;8856;-79
2021/04/17 04:28:15;;;;;;;;;40.33;38.33;;;;;;;;5023244;28;8880;-78
2021/04/17 04:30:42;;;;;;;;;49.33;44.00;;;;;;;;5023336;28;8911;-78
2021/04/17 04:33:10;;;;;;;;;44.00;39.00;;;;;;;;5022724;28;8918;-78
2021/04/17 04:35:38;;;;;;;;;46.33;39.00;;;;;;;;5024550;28;8864;-78
2021/04/17 04:38:05;;;;;;;;;50.67;43.33;;;;;;;;5022801;28;8886;-78
2021/04/17 04:40:32;;;;;;;;;44.33;43.00;;;;;;;;5028190;28;8872;-78
2021/04/17 04:42:59;;;;;;;;;43.67;37.33;;;;;;;;5023449;28;8868;-79
2021/04/17 04:45:26;;;;;;;;;48.00;42.67;;;;;;;;5025245;28;8969;-78
2021/04/17 04:47:53;;;;;;;;;49.33;43.00;;;;;;;;5022795;28;8887;-79
2021/04/17 04:50:21;;;;;;;;;38.67;36.33;;;;;;;;5022931;28;8867;-80
2021/04/17 04:52:48;;;;;;;;;41.33;39.00;;;;;;;;5023819;28;9841;-80
2021/04/17 04:55:15;;;;;;;;;46.00;42.33;;;;;;;;5027980;28;8927;-83
2021/04/17 04:57:42;;;;;;;;;44.00;40.00;;;;;;;;5024085;28;8905;-82
2021/04/17 05:00:11;;;;;;;;;39.00;34.67;;;;;;;;5022439;28;8900;-82
2021/04/17 05:02:38;;;;;;;;;38.33;37.33;;;;;;;;5029493;28;8983;-82
2021/04/17 05:05:06;;;;;;;;;50.33;42.67;;;;;;;;5023423;28;8842;-82
2021/04/17 05:07:34;;;;;;;;;58.33;50.00;;;;;;;;5020034;28;8910;-80
2021/04/17 05:10:01;;;;;;;;;48.67;46.00;;;;;;;;5022923;28;8876;-83
2021/04/17 05:12:28;;;;;;;;;70.00;58.00;;;;;;;;5028233;28;9584;-80
2021/04/17 05:14:55;;;;;;;;;55.00;47.67;;;;;;;;5026993;28;8906;-82
2021/04/17 05:17:22;;;;;;;;;53.00;47.33;;;;;;;;5024154;28;8860;-81
2021/04/17 05:19:49;;;;;;;;;64.00;52.33;;;;;;;;5025918;28;8974;-84
2021/04/17 05:22:16;;;;;;;;;55.00;47.33;;;;;;;;5022079;28;8848;-81
2021/04/17 05:24:43;;;;;;;;;45.67;43.00;;;;;;;;5020679;28;8867;-83
2021/04/17 05:27:11;;;;;;;;;53.33;46.67;;;;;;;;5021332;28;8913;-80
2021/04/17 05:29:38;;;;;;;;;47.33;43.00;;;;;;;;5026668;28;9006;-80
2021/04/17 05:32:07;;;;;;;;;59.33;47.33;;;;;;;;5015187;28;8971;-77
2021/04/17 05:34:34;;;;;;;;;53.67;45.67;;;;;;;;5020347;28;8864;-78
2021/04/17 05:37:01;;;;;;;;;62.33;49.00;;;;;;;;5020902;28;8867;-78
2021/04/17 05:39:28;;;;;;;;;55.33;48.33;;;;;;;;5022089;28;9027;-80
2021/04/17 05:41:56;;;;;;;;;58.00;49.00;;;;;;;;5023188;28;9002;-76
2021/04/17 05:44:23;;;;;;;;;64.00;48.00;;;;;;;;5022206;28;9097;-82
2021/04/17 05:46:50;;;;;;;;;46.67;44.67;;;;;;;;5012232;28;8876;-86
2021/04/17 05:49:17;;;;;;;;;48.00;41.67;;;;;;;;5023525;28;8965;-80
2021/04/17 05:51:45;;;;;;;;;57.67;48.00;;;;;;;;5019756;28;8906;-78
2021/04/17 05:54:13;;;;;;;;;43.67;38.33;;;;;;;;5022710;28;8907;-78
2021/04/17 05:56:39;;;;;;;;;52.00;44.67;;;;;;;;5018509;28;8879;-74
2021/04/17 05:59:08;;;;;;;;;59.33;48.67;;;;;;;;5021749;28;8880;-76
2021/04/17 06:01:34;;;;;;;;;50.33;43.33;;;;;;;;5019114;28;9634;-72
2021/04/17 06:04:02;;;;;;;;;52.67;46.33;;;;;;;;5020488;28;8901;-72
2021/04/17 06:06:31;;;;;;;;;50.00;43.67;;;;;;;;5010943;28;9323;-76
2021/04/17 06:08:58;;;;;;;;;41.67;40.00;;;;;;;;5006283;28;9630;-77
2021/04/17 06:11:25;;;;;;;;;51.00;45.33;;;;;;;;5023292;28;8954;-77
2021/04/17 06:13:53;;;;;;;;;52.00;46.33;;;;;;;;5018525;28;8903;-75
2021/04/17 06:16:21;;;;;;;;;48.33;43.00;;;;;;;;5019163;28;8871;-76
2021/04/17 06:18:48;;;;;;;;;42.33;40.67;;;;;;;;5017573;28;8863;-74
2021/04/17 06:21:15;;;;;;;;;56.67;45.67;;;;;;;;5015232;28;8910;-76
2021/04/17 06:23:42;;;;;;;;;55.00;45.67;;;;;;;;5020188;28;8908;-77
2021/04/17 06:26:09;;;;;;;;;52.67;43.00;;;;;;;;5026831;28;8856;-76
2021/04/17 06:28:36;;;;;;;;;52.33;45.67;;;;;;;;5021891;28;9034;-77
2021/04/17 06:31:04;;;;;;;;;52.00;43.33;;;;;;;;5019282;28;8854;-77
2021/04/17 06:33:32;;;;;;;;;47.33;43.67;;;;;;;;5021614;28;8870;-78
2021/04/17 06:36:02;;;;;;;;;49.33;45.00;;;;;;;;5022231;28;8869;-71
2021/04/17 06:38:29;;;;;;;;;49.00;45.00;;;;;;;;5024910;28;9641;-77
2021/04/17 06:40:56;;;;;;;;;45.67;40.67;;;;;;;;5027392;28;8868;-75
2021/04/17 06:43:24;;;;;;;;;46.00;39.00;;;;;;;;5022951;28;9078;-74
2021/04/17 06:45:55;;;;;;;;;50.67;41.00;;;;;;;;5024280;28;11594;-75
2021/04/17 06:48:23;;;;;;;;;46.00;42.33;;;;;;;;5023830;28;11626;-74
2021/04/17 06:50:51;;;;;;;;;51.33;41.67;;;;;;;;5030142;28;11607;-76
2021/04/17 06:53:19;;;;;;;;;44.00;41.00;;;;;;;;5023646;28;11614;-73
2021/04/17 06:55:50;;;;;;;;;41.50;37.25;;;;;;;;5028582;28;11610;-73
2021/04/17 06:58:18;;;;;;;;;43.67;40.67;;;;;;;;5023257;28;12355;-73
2021/04/17 07:00:45;;;;;;;;;40.33;40.33;;;;;;;;5023450;28;11583;-74
2021/04/17 07:03:12;;;;;;;;;44.00;41.25;;;;;;;;5031253;28;11721;-73
2021/04/17 07:05:38;;;;;;;;;38.75;35.50;;;;;;;;5024571;28;12398;-74
2021/04/17 07:08:07;;;;;;;;;39.00;39.00;;;;;;;;5024615;28;11630;-73
2021/04/17 07:10:34;;;;;;;;;38.25;35.75;;;;;;;;5024283;28;11698;-73
2021/04/17 07:13:08;;;;;;;;;40.00;39.75;;;;;;;;5031437;28;11745;-72
2021/04/17 07:15:36;;;;;;;;;34.75;34.75;;;;;;;;5024624;28;11609;-73
2021/04/17 07:18:30;;;;;;;;;40.75;36.00;;;;;;;;5022892;28;11676;-74
2021/04/17 07:20:59;;;;;;;;;40.75;36.75;;;;;;;;5019838;28;12484;-73
2021/04/17 07:23:42;;;;;;;;;40.00;34.25;;;;;;;;5021507;28;11647;-73
2021/04/17 07:26:10;;;;;;;;;35.50;33.00;;;;;;;;5024296;28;11695;-72
2021/04/17 07:28:38;;;;;;;;;44.50;39.75;;;;;;;;5023562;28;11604;-75
2021/04/17 07:31:05;;;;;;;;;37.25;36.75;;;;;;;;5019801;28;12144;-71
2021/04/17 07:33:32;;;;;;;;;26.00;24.50;;;;;;;;5006601;28;11644;-71
2021/04/17 07:36:01;;;;;;;;;32.75;30.75;;;;;;;;5017443;28;11635;-72
2021/04/17 07:38:33;;;;;;;;;38.50;32.25;;;;;;;;5020623;28;11606;-72
2021/04/17 07:41:04;;;;;;;;;34.75;34.75;;;;;;;;5017781;28;11665;-72
2021/04/17 07:43:53;;;;;;;;;34.75;32.50;;;;;;;;5018281;28;11838;-72
2021/04/17 07:46:23;;;;;;;;;39.25;37.00;;;;;;;;5008183;28;12451;-73
2021/04/17 07:48:50;;;;;;;;;35.00;34.50;;;;;;;;5026011;28;11617;-73
2021/04/17 07:51:18;;;;;;;;;36.25;34.25;;;;;;;;5019124;28;11681;-71
2021/04/17 07:53:45;;;;;;;;;36.00;34.00;;;;;;;;5016652;28;11633;-72
2021/04/17 07:56:34;;;;;;;;;43.50;41.00;;;;;;;;5021663;28;11651;-74
2021/04/17 07:59:04;;;;;;;;;34.50;34.50;;;;;;;;5027948;28;11631;-69
2021/04/17 08:01:33;;;;;;;;;31.50;29.50;;;;;;;;5017506;28;11603;-71
2021/04/17 08:04:01;;;;;;;;;24.75;24.75;;;;;;;;5013459;28;11650;-70
2021/04/17 08:06:29;;;;;;;;;42.25;37.00;;;;;;;;5019117;28;11603;-73
2021/04/17 08:08:58;;;;;;;;;35.75;35.75;;;;;;;;5021120;28;11896;-71
2021/04/17 08:11:27;;;;;;;;;33.50;31.75;;;;;;;;5019170;28;11733;-73
2021/04/17 08:13:56;;;;;;;;;37.25;33.25;;;;;;;;5021467;28;11606;-70
2021/04/17 08:16:23;;;;;;;;;35.50;35.50;;;;;;;;5020207;28;11612;-69
2021/04/17 08:18:50;;;;;;;;;35.75;34.00;;;;;;;;5025638;28;11623;-69
2021/04/17 08:21:19;;;;;;;;;39.25;34.25;;;;;;;;5021797;28;11731;-70
2021/04/17 08:23:48;;;;;;;;;30.00;28.00;;;;;;;;5018842;28;11616;-68
2021/04/17 08:26:16;;;;;;;;;40.75;37.50;;;;;;;;5012461;28;11691;-70
2021/04/17 08:28:44;;;;;;;;;33.50;32.75;;;;;;;;5014267;28;11754;-73
2021/04/17 08:31:23;;;;;;;;;40.25;35.50;;;;;;;;5020336;28;11583;-71
2021/04/17 08:34:23;;;;;;;;;36.75;32.00;;;;;;;;5021160;28;11664;-71
2021/04/17 08:36:52;;;;;;;;;31.50;30.50;;;;;;;;5018228;28;11619;-72
2021/04/17 08:39:42;;;;;;;;;44.25;37.75;;;;;;;;5017740;28;11603;-72
2021/04/17 08:42:12;;;;;;;;;39.25;38.00;;;;;;;;5015260;28;12516;-73
2021/04/17 08:44:41;;;;;;;;;41.75;36.75;;;;;;;;5023601;28;11609;-72
2021/04/17 08:47:12;;;;;;;;;40.25;37.50;;;;;;;;5022662;28;11732;-73
2021/04/17 08:49:40;;;;;;;;;32.25;32.25;;;;;;;;5018841;28;11677;-72
2021/04/17 08:52:20;;;;;;;;;38.25;36.25;;;;;;;;5017141;28;11658;-73
2021/04/17 08:55:06;;;;;;;;;38.25;32.50;;;;;;;;5009182;28;11729;-73
2021/04/17 08:57:34;;;;;;;;;37.50;35.50;;;;;;;;5006606;28;11530;-71
2021/04/17 09:00:01;;;;;;;;;39.00;37.50;;;;;;;;5025538;28;11543;-77
2021/04/17 09:02:30;;;;;;;;;34.75;31.50;;;;;;;;5020777;28;11536;-73
2021/04/17 09:05:02;;;;;;;;;32.25;32.25;;;;;;;;5018666;28;11592;-75
2021/04/17 09:07:31;;;;;;;;;30.50;29.25;;;;;;;;5018288;28;11578;-73
2021/04/17 09:10:31;;;;;;;;;38.00;31.25;;;;;;;;5021114;28;11554;-72
2021/04/17 09:13:35;;;;;;;;;32.50;29.25;;;;;;;;5022198;28;11654;-72
2021/04/17 09:16:05;;;;;;;;;34.50;30.75;;;;;;;;5016695;28;11595;-75
2021/04/17 09:18:46;;;;;;;;;33.00;30.25;;;;;;;;5021756;28;11580;-72
2021/04/17 09:21:35;;;;;;;;;30.00;30.00;;;;;;;;5017790;28;11564;-71
2021/04/17 09:24:03;;;;;;;;;33.00;29.00;;;;;;;;5020641;28;11556;-71
2021/04/17 09:26:41;;;;;;;;;39.75;33.00;;;;;;;;5023793;28;11229;-73
2021/04/17 09:29:23;;;;;;;;;30.25;30.25;;;;;;;;5020452;28;11199;-72
2021/04/17 09:31:51;;;;;;;;;35.25;31.00;;;;;;;;5022590;28;11927;-73
2021/04/17 09:34:21;;;;;;;;;30.25;28.50;;;;;;;;5021569;28;11089;-72
2021/04/17 09:36:50;;;;;;;;;29.00;25.75;;;;;;;;5019017;28;11180;-73
2021/04/17 09:39:28;;;;;;;;;24.25;23.25;;;;;;;;5025239;28;11152;-73
2021/04/17 09:41:57;;;;;;;;;30.50;24.75;;;;;;;;5017510;28;11765;-73
2021/04/17 09:44:24;;;;;;;;;27.00;27.00;;;;;;;;5019537;28;10996;-71
2021/04/17 09:47:08;;;;;;;;;23.75;22.25;;;;;;;;5019284;28;11628;-74
2021/04/17 09:49:41;;;;;;;;;32.00;28.00;;;;;;;;5011037;28;10775;-74
2021/04/17 09:52:11;;;;;;;;;27.25;26.25;;;;;;;;5018624;28;10837;-73
2021/04/17 09:54:39;;;;;;;;;28.75;27.50;;;;;;;;5020346;28;10791;-74
2021/04/17 09:57:07;;;;;;;;;26.00;24.75;;;;;;;;5021669;28;11650;-73
2021/04/17 09:59:35;;;;;;;;;30.25;26.00;;;;;;;;5018908;28;10779;-73
2021/04/17 10:02:02;;;;;;;;;22.75;22.75;;;;;;;;5022828;28;10327;-73
2021/04/17 10:04:55;;;;;;;;;27.00;23.25;;;;;;;;5021188;28;10628;-72
2021/04/17 10:07:22;;;;;;;;;33.25;31.00;;;;;;;;5018940;28;10367;-75
2021/04/17 10:10:06;;;;;;;;;20.50;19.00;;;;;;;;5021641;28;10798;-72
2021/04/17 10:12:33;;;;;;;;;28.25;22.00;;;;;;;;5020006;28;10369;-74
2021/04/17 10:15:18;;;;;;;;;30.25;30.25;;;;;;;;5020741;28;11651;-72
2021/04/17 10:17:45;;;;;;;;;19.25;19.25;;;;;;;;5019944;28;10437;-73
2021/04/17 10:20:14;;;;;;;;;24.50;24.25;;;;;;;;5021371;28;10206;-72
2021/04/17 10:22:41;;;;;;;;;22.50;22.50;;;;;;;;5020885;28;10130;-72
2021/04/17 10:25:09;;;;;;;;;22.50;20.75;;;;;;;;5020179;28;10083;-74
2021/04/17 10:27:37;;;;;;;;;16.25;16.25;;;;;;;;5021259;28;9990;-73
2021/04/17 10:30:16;;;;;;;;;20.25;17.50;;;;;;;;5019152;28;10029;-73
2021/04/17 10:32:44;;;;;;;;;19.00;19.00;;;;;;;;5020674;28;9885;-73
2021/04/17 10:35:15;;;;;;;;;27.50;25.50;;;;;;;;5018440;28;10014;-72
2021/04/17 10:37:44;;;;;;;;;16.50;16.00;;;;;;;;5021411;28;10161;-73
2021/04/17 10:40:14;;;;;;;;;20.25;18.50;;;;;;;;5023099;28;9927;-74
2021/04/17 10:42:49;;;;;;;;;20.00;18.00;;;;;;;;5019101;28;9914;-74
2021/04/17 10:45:17;;;;;;;;;35.25;33.75;;;;;;;;5018532;28;9800;-73
2021/04/17 10:47:55;;;;;;;;;21.00;19.00;;;;;;;;5018812;28;10226;-74
2021/04/17 10:50:25;;;;;;;;;18.00;18.00;;;;;;;;5018088;28;9923;-73
2021/04/17 10:53:02;;;;;;;;;24.25;20.25;;;;;;;;5019469;28;9910;-74
2021/04/17 10:55:38;;;;;;;;;13.75;13.75;;;;;;;;5020471;28;9834;-72
2021/04/17 10:58:05;;;;;;;;;18.50;17.00;;;;;;;;5015444;28;9930;-73
2021/04/17 11:00:34;;;;;;;;;11.75;11.75;;;;;;;;5015313;28;9440;-70
2021/04/17 11:03:03;;;;;;;;;11.00;11.00;;;;;;;;5017608;28;9475;-75
2021/04/17 11:05:33;;;;;;;;;24.50;21.75;;;;;;;;5016803;28;9672;-74
2021/04/17 11:08:01;;;;;;;;;23.50;20.75;;;;;;;;5019078;28;9797;-73
2021/04/17 11:10:33;;;;;;;;;29.00;29.00;;;;;;;;5019511;28;9727;-74
2021/04/17 11:13:00;;;;;;;;;16.75;14.25;;;;;;;;5018102;28;9802;-75
2021/04/17 11:15:29;;;;;;;;;14.00;12.33;;;;;;;;5019881;28;9546;-74
2021/04/17 11:18:13;;;;;;;;;13.00;11.67;;;;;;;;5016462;28;9354;-73
2021/04/17 11:21:00;;;;;;;;;12.67;12.67;;;;;;;;5027482;28;9296;-72
2021/04/17 11:23:41;;;;;;;;;12.33;11.00;;;;;;;;5025731;28;9295;-73
2021/04/17 11:26:10;;;;;;;;;14.00;14.00;;;;;;;;5022893;28;9261;-70
2021/04/17 11:28:40;;;;;;;;;11.33;11.33;;;;;;;;5025871;28;9297;-74
2021/04/17 11:31:08;;;;;;;;;12.00;10.67;;;;;;;;5021909;28;8923;-72
2021/04/17 11:33:35;;;;;;;;;16.33;13.00;;;;;;;;5024442;28;9910;-75
2021/04/17 11:36:04;;;;;;;;;11.33;10.00;;;;;;;;5022741;28;9249;-73
2021/04/17 11:38:32;;;;;;;;;11.00;9.33;;;;;;;;5024226;28;8971;-74
2021/04/17 11:40:59;;;;;;;;;9.00;9.00;;;;;;;;5024101;28;9033;-72
2021/04/17 11:43:26;;;;;;;;;12.00;12.00;;;;;;;;5023016;28;8981;-73
2021/04/17 11:45:53;;;;;;;;;11.25;11.25;;;;;;;;5022599;28;8971;-73
2021/04/17 11:48:20;;;;;;;;;10.00;10.00;;;;;;;;5020461;28;8860;-75
2021/04/17 11:50:47;;;;;;;;;8.50;8.50;;;;;;;;5016444;28;9037;-74
2021/04/17 11:53:19;;;;;;;;;11.00;11.00;;;;;;;;5022435;28;9578;-73
2021/04/17 11:55:46;;;;;;;;;13.00;11.25;;;;;;;;5022562;28;8863;-73
2021/04/17 11:58:12;;;;;;;;;11.25;11.25;;;;;;;;5020176;28;8868;-76
2021/04/17 12:00:39;;;;;;;;;9.75;8.25;;;;;;;;5021226;28;8826;-74
2021/04/17 12:03:07;;;;;;;;;9.25;7.75;;;;;;;;5021197;28;9628;-76
2021/04/17 12:05:34;;;;;;;;;12.50;11.00;;;;;;;;5018720;28;8898;-73
2021/04/17 12:08:00;;;;;;;;;15.50;15.50;;;;;;;;5023079;28;8871;-75
2021/04/17 12:10:29;;;;;;;;;11.75;11.75;;;;;;;;5021745;28;8892;-73
2021/04/17 12:12:56;;;;;;;;;13.00;12.75;;;;;;;;5023771;28;8864;-74
2021/04/17 12:15:22;;;;;;;;;17.75;17.25;;;;;;;;5022327;28;8907;-74
2021/04/17 12:17:50;;;;;;;;;16.25;12.75;;;;;;;;5022125;28;8887;-74
2021/04/17 12:20:17;;;;;;;;;8.50;8.50;;;;;;;;5018762;28;8872;-75
2021/04/17 12:22:44;;;;;;;;;10.75;10.75;;;;;;;;5020923;28;8935;-76
2021/04/17 12:25:11;;;;;;;;;15.25;13.00;;;;;;;;5023719;28;8890;-75
2021/04/17 12:27:39;;;;;;;;;8.75;8.75;;;;;;;;5022721;28;8867;-73
2021/04/17 12:30:09;;;;;;;;;13.00;13.00;;;;;;;;5023021;28;8889;-71
2021/04/17 12:32:36;;;;;;;;;12.75;12.75;;;;;;;;5022966;28;9673;-70
2021/04/17 12:35:04;;;;;;;;;15.50;15.50;;;;;;;;5022438;28;8867;-75
2021/04/17 12:37:31;;;;;;;;;14.00;14.00;;;;;;;;5022949;28;8860;-73
2021/04/17 12:39:58;;;;;;;;;14.25;12.50;;;;;;;;5023128;28;8911;-74
2021/04/17 12:42:25;;;;;;;;;30.67;27.00;;;;;;;;5020436;28;8872;-74
2021/04/17 12:44:52;;;;;;;;;14.00;10.75;;;;;;;;5020077;28;8899;-73
2021/04/17 12:47:19;;;;;;;;;13.25;13.25;;;;;;;;5022901;28;9713;-72
2021/04/17 12:49:46;;;;;;;;;16.00;16.00;;;;;;;;5015702;28;9480;-72
2021/04/17 12:52:13;;;;;;;;;12.50;12.50;;;;;;;;5020560;28;8928;-75
2021/04/17 12:54:40;;;;;;;;;16.50;16.50;;;;;;;;5020879;28;8882;-73
2021/04/17 12:57:07;;;;;;;;;18.25;16.50;;;;;;;;5021055;28;8856;-73
2021/04/17 12:59:33;;;;;;;;;16.25;16.25;;;;;;;;5020933;28;9012;-73
2021/04/17 13:02:01;;;;;;;;;20.50;18.50;;;;;;;;5020979;28;8842;-73
2021/04/17 13:04:28;;;;;;;;;20.25;20.25;;;;;;;;5019513;28;9057;-73
2021/04/17 13:06:55;;;;;;;;;18.75;18.25;;;;;;;;5017194;28;8853;-73
2021/04/17 13:09:22;;;;;;;;;22.00;18.75;;;;;;;;5031892;28;8865;-73
2021/04/17 13:11:49;;;;;;;;;14.75;14.75;;;;;;;;5022363;28;8875;-73
2021/04/17 13:14:16;;;;;;;;;15.25;14.75;;;;;;;;5022015;28;8900;-73
2021/04/17 13:16:43;;;;;;;;;15.50;15.25;;;;;;;;5023651;28;9634;-71
2021/04/17 13:19:11;;;;;;;;;17.75;16.50;;;;;;;;5015506;28;8914;-72
2021/04/17 13:21:38;;;;;;;;;17.75;16.50;;;;;;;;5025297;28;8868;-74
2021/04/17 13:24:06;;;;;;;;;20.50;18.00;;;;;;;;5021122;28;8883;-75
2021/04/17 13:26:33;;;;;;;;;13.25;13.25;;;;;;;;5022226;28;8852;-76
2021/04/17 13:29:00;;;;;;;;;15.50;15.50;;;;;;;;5021519;28;8872;-74
2021/04/17 13:31:27;;;;;;;;;15.25;15.25;;;;;;;;5018684;28;8916;-73
2021/04/17 13:33:55;;;;;;;;;15.25;14.00;;;;;;;;5018346;28;8864;-74
2021/04/17 13:36:22;;;;;;;;;17.50;17.50;;;;;;;;5018262;28;8979;-73
2021/04/17 13:38:49;;;;;;;;;15.75;15.75;;;;;;;;5017956;28;8904;-74
2021/04/17 13:41:16;;;;;;;;;14.75;13.50;;;;;;;;5013210;28;8880;-76
2021/04/17 13:43:43;;;;;;;;;15.00;15.00;;;;;;;;5020586;28;8998;-73
2021/04/17 13:46:10;;;;;;;;;17.75;14.25;;;;;;;;5015921;28;8872;-73
2021/04/17 13:48:37;;;;;;;;;14.50;14.50;;;;;;;;5019882;28;8860;-74
2021/04/17 13:51:06;;;;;;;;;12.00;11.50;;;;;;;;5025058;28;8881;-77
2021/04/17 13:53:35;;;;;;;;;15.25;13.75;;;;;;;;5021468;28;8855;-76
2021/04/17 13:56:02;;;;;;;;;18.00;16.25;;;;;;;;5021126;28;9050;-73
2021/04/17 13:58:29;;;;;;;;;17.75;15.50;;;;;;;;5024626;28;8969;-74
2021/04/17 14:00:56;;;;;;;;;19.00;17.75;;;;;;;;5025216;28;8784;-74
2021/04/17 14:03:23;;;;;;;;;16.00;16.00;;;;;;;;5019869;28;8951;-73
2021/04/17 14:05:50;;;;;;;;;15.25;13.75;;;;;;;;5013859;28;8900;-73
2021/04/17 14:08:17;;;;;;;;;14.00;14.00;;;;;;;;5021052;28;8872;-76
2021/04/17 14:10:47;;;;;;;;;17.75;15.00;;;;;;;;5027396;28;8883;-75
2021/04/17 14:13:15;;;;;;;;;16.00;16.00;;;;;;;;5022635;28;8942;-75
2021/04/17 14:15:42;;;;;;;;;16.25;14.75;;;;;;;;5017049;28;8857;-78
2021/04/17 14:18:09;;;;;;;;;15.50;15.50;;;;;;;;5022076;28;9647;-70
2021/04/17 14:20:36;;;;;;;;;18.75;17.00;;;;;;;;5019901;28;8855;-74
2021/04/17 14:23:03;;;;;;;;;15.00;15.00;;;;;;;;5020835;28;9712;-78
2021/04/17 14:25:30;;;;;;;;;18.25;18.25;;;;;;;;5016464;28;8891;-75
2021/04/17 14:27:58;;;;;;;;;15.75;15.75;;;;;;;;5020895;28;8952;-73
2021/04/17 14:30:25;;;;;;;;;19.00;19.00;;;;;;;;5019197;28;8776;-75
2021/04/17 14:32:52;;;;;;;;;19.00;18.50;;;;;;;;5017038;28;8993;-77
2021/04/17 14:35:23;;;;;;;;;19.75;17.00;;;;;;;;5021332;28;8860;-77
2021/04/17 14:37:50;;;;;;;;;15.75;15.75;;;;;;;;5018152;28;9266;-75